sensor_id;sensor_type;location;lat;lon;timestamp;temperature;humidity
15834;DHT22;8017;50.812;4.934;2023-02-15T00:00:42;2.00;99.90
15834;DHT22;8017;50.812;4.934;2023-02-15T00:03:44;2.00;99.90
15834;DHT22;8017;50.812;4.934;2023-02-15T00:06:46;1.90;99.90
15834;DHT22;8017;50.812;4.934;2023-02-15T00:09:48;1.90;99.90
15834;DHT22;8017;50.812;4.934;2023-02-15T00:12:50;1.90;99.90
15834;DHT22;8017;50.812;4.934;2023-02-15T00:15:53;1.80;99.90
15834;DHT22;8017;50.812;4.934;2023-02-15T00:18:55;1.80;99.90
15834;DHT22;8017;50.812;4.934;2023-02-15T00:21:57;1.80;99.90
15834;DHT22;8017;50.812;4.934;2023-02-15T00:24:59;1.80;99.90
15834;DHT22;8017;50.812;4.934;2023-02-15T00:28:01;1.80;99.90
15834;DHT22;8017;50.812;4.934;2023-02-15T00:31:05;1.80;99.90
15834;DHT22;8017;50.812;4.934;2023-02-15T00:34:11;1.90;99.90
15834;DHT22;8017;50.812;4.934;2023-02-15T00:37:13;1.90;99.90
15834;DHT22;8017;50.812;4.934;2023-02-15T00:40:15;1.80;99.90
15834;DHT22;8017;50.812;4.934;2023-02-15T00:43:17;1.80;99.90
15834;DHT22;8017;50.812;4.934;2023-02-15T00:46:21;1.80;99.90
15834;DHT22;8017;50.812;4.934;2023-02-15T00:49:22;1.70;99.90
15834;DHT22;8017;50.812;4.934;2023-02-15T00:52:24;1.60;99.90
15834;DHT22;8017;50.812;4.934;2023-02-15T00:55:26;1.60;99.90
15834;DHT22;8017;50.812;4.934;2023-02-15T00:58:28;1.60;99.90
15834;DHT22;8017;50.812;4.934;2023-02-15T01:01:31;1.60;99.90
15834;DHT22;8017;50.812;4.934;2023-02-15T01:04:33;1.60;99.90
15834;DHT22;8017;50.812;4.934;2023-02-15T01:07:35;1.50;99.90
15834;DHT22;8017;50.812;4.934;2023-02-15T01:10:37;1.60;99.90
15834;DHT22;8017;50.812;4.934;2023-02-15T01:13:40;1.50;99.90
15834;DHT22;8017;50.812;4.934;2023-02-15T01:16:43;1.50;99.90
15834;DHT22;8017;50.812;4.934;2023-02-15T01:19:45;1.40;99.90
15834;DHT22;8017;50.812;4.934;2023-02-15T01:22:47;1.40;99.90
15834;DHT22;8017;50.812;4.934;2023-02-15T01:25:50;1.40;99.90
15834;DHT22;8017;50.812;4.934;2023-02-15T01:28:52;1.40;99.90
15834;DHT22;8017;50.812;4.934;2023-02-15T01:31:55;1.30;99.90
15834;DHT22;8017;50.812;4.934;2023-02-15T01:34:57;1.30;99.90
15834;DHT22;8017;50.812;4.934;2023-02-15T01:37:59;1.40;99.90
15834;DHT22;8017;50.812;4.934;2023-02-15T01:41:01;1.30;99.90
15834;DHT22;8017;50.812;4.934;2023-02-15T01:44:48;1.30;99.90
15834;DHT22;8017;50.812;4.934;2023-02-15T01:47:54;1.30;99.90
15834;DHT22;8017;50.812;4.934;2023-02-15T01:50:59;1.20;99.90
15834;DHT22;8017;50.812;4.934;2023-02-15T01:54:05;1.20;99.90
15834;DHT22;8017;50.812;4.934;2023-02-15T01:57:12;1.20;99.90
15834;DHT22;8017;50.812;4.934;2023-02-15T02:00:16;1.20;99.90
15834;DHT22;8017;50.812;4.934;2023-02-15T02:03:27;1.20;99.90
15834;DHT22;8017;50.812;4.934;2023-02-15T02:06:36;1.20;99.90
15834;DHT22;8017;50.812;4.934;2023-02-15T02:09:38;1.20;99.90
15834;DHT22;8017;50.812;4.934;2023-02-15T02:12:42;1.10;99.90
15834;DHT22;8017;50.812;4.934;2023-02-15T02:15:49;1.20;99.90
15834;DHT22;8017;50.812;4.934;2023-02-15T02:19:14;1.20;99.90
15834;DHT22;8017;50.812;4.934;2023-02-15T02:26:16;1.10;99.90
15834;DHT22;8017;50.812;4.934;2023-02-15T02:33:50;1.00;99.90
15834;DHT22;8017;50.812;4.934;2023-02-15T02:36:59;1.00;99.90
15834;DHT22;8017;50.812;4.934;2023-02-15T02:40:08;0.90;99.90
15834;DHT22;8017;50.812;4.934;2023-02-15T02:43:19;0.90;99.90
15834;DHT22;8017;50.812;4.934;2023-02-15T02:46:28;0.90;99.90
15834;DHT22;8017;50.812;4.934;2023-02-15T02:49:34;0.90;99.90
15834;DHT22;8017;50.812;4.934;2023-02-15T02:52:40;0.80;99.90
15834;DHT22;8017;50.812;4.934;2023-02-15T02:55:45;0.90;99.90
15834;DHT22;8017;50.812;4.934;2023-02-15T02:58:50;0.80;99.90
15834;DHT22;8017;50.812;4.934;2023-02-15T03:01:57;0.80;99.90
15834;DHT22;8017;50.812;4.934;2023-02-15T03:05:03;0.80;99.90
15834;DHT22;8017;50.812;4.934;2023-02-15T03:08:08;0.70;99.90
15834;DHT22;8017;50.812;4.934;2023-02-15T03:11:11;0.70;99.90
15834;DHT22;8017;50.812;4.934;2023-02-15T03:14:14;0.70;99.90
15834;DHT22;8017;50.812;4.934;2023-02-15T03:17:20;0.70;99.90
15834;DHT22;8017;50.812;4.934;2023-02-15T03:20:27;0.60;99.90
15834;DHT22;8017;50.812;4.934;2023-02-15T03:23:32;0.60;99.90
15834;DHT22;8017;50.812;4.934;2023-02-15T03:26:34;0.60;99.90
15834;DHT22;8017;50.812;4.934;2023-02-15T03:29:38;0.60;99.90
15834;DHT22;8017;50.812;4.934;2023-02-15T03:32:41;0.50;99.90
15834;DHT22;8017;50.812;4.934;2023-02-15T03:35:59;0.50;99.90
15834;DHT22;8017;50.812;4.934;2023-02-15T03:39:07;0.50;99.90
15834;DHT22;8017;50.812;4.934;2023-02-15T03:42:14;0.50;99.90
15834;DHT22;8017;50.812;4.934;2023-02-15T03:45:24;0.50;99.90
15834;DHT22;8017;50.812;4.934;2023-02-15T03:48:29;0.50;99.90
15834;DHT22;8017;50.812;4.934;2023-02-15T03:51:36;0.50;99.90
15834;DHT22;8017;50.812;4.934;2023-02-15T03:54:39;0.60;99.90
15834;DHT22;8017;50.812;4.934;2023-02-15T03:57:46;0.60;99.90
15834;DHT22;8017;50.812;4.934;2023-02-15T04:01:14;0.60;99.90
15834;DHT22;8017;50.812;4.934;2023-02-15T04:04:39;0.60;99.90
15834;DHT22;8017;50.812;4.934;2023-02-15T04:07:43;0.60;99.90
15834;DHT22;8017;50.812;4.934;2023-02-15T04:10:45;0.50;99.90
15834;DHT22;8017;50.812;4.934;2023-02-15T04:13:52;0.50;99.90
15834;DHT22;8017;50.812;4.934;2023-02-15T04:16:57;0.40;99.90
15834;DHT22;8017;50.812;4.934;2023-02-15T04:19:58;0.40;99.90
15834;DHT22;8017;50.812;4.934;2023-02-15T04:23:18;0.40;99.90
15834;DHT22;8017;50.812;4.934;2023-02-15T04:26:38;0.40;99.90
15834;DHT22;8017;50.812;4.934;2023-02-15T04:29:39;0.40;99.90
15834;DHT22;8017;50.812;4.934;2023-02-15T04:32:41;0.40;99.90
15834;DHT22;8017;50.812;4.934;2023-02-15T04:35:43;0.40;99.90
15834;DHT22;8017;50.812;4.934;2023-02-15T04:38:47;0.30;99.90
15834;DHT22;8017;50.812;4.934;2023-02-15T04:41:49;0.30;99.90
15834;DHT22;8017;50.812;4.934;2023-02-15T04:44:51;0.30;99.90
15834;DHT22;8017;50.812;4.934;2023-02-15T04:47:53;0.20;99.90
15834;DHT22;8017;50.812;4.934;2023-02-15T04:50:55;0.20;99.90
15834;DHT22;8017;50.812;4.934;2023-02-15T04:53:59;0.20;99.90
15834;DHT22;8017;50.812;4.934;2023-02-15T04:57:01;0.10;99.90
15834;DHT22;8017;50.812;4.934;2023-02-15T05:00:03;0.10;99.90
15834;DHT22;8017;50.812;4.934;2023-02-15T05:03:05;0.10;99.90
15834;DHT22;8017;50.812;4.934;2023-02-15T05:06:07;0.10;99.90
15834;DHT22;8017;50.812;4.934;2023-02-15T05:09:11;0.10;99.90
15834;DHT22;8017;50.812;4.934;2023-02-15T05:12:13;0.10;99.90
15834;DHT22;8017;50.812;4.934;2023-02-15T05:15:16;0.10;99.90
15834;DHT22;8017;50.812;4.934;2023-02-15T05:18:19;0.10;99.90
15834;DHT22;8017;50.812;4.934;2023-02-15T05:21:21;0.10;99.90
15834;DHT22;8017;50.812;4.934;2023-02-15T05:24:24;0.10;99.90
15834;DHT22;8017;50.812;4.934;2023-02-15T05:27:44;0.20;99.90
15834;DHT22;8017;50.812;4.934;2023-02-15T05:31:05;0.20;99.90
15834;DHT22;8017;50.812;4.934;2023-02-15T05:34:07;0.20;99.90
15834;DHT22;8017;50.812;4.934;2023-02-15T05:37:09;0.20;99.90
15834;DHT22;8017;50.812;4.934;2023-02-15T05:40:12;0.20;99.90
15834;DHT22;8017;50.812;4.934;2023-02-15T05:43:14;0.10;99.90
15834;DHT22;8017;50.812;4.934;2023-02-15T05:46:16;0.20;99.90
15834;DHT22;8017;50.812;4.934;2023-02-15T05:49:18;0.20;99.90
15834;DHT22;8017;50.812;4.934;2023-02-15T05:52:20;0.20;99.90
15834;DHT22;8017;50.812;4.934;2023-02-15T05:55:23;0.20;99.90
15834;DHT22;8017;50.812;4.934;2023-02-15T05:58:25;0.20;99.90
15834;DHT22;8017;50.812;4.934;2023-02-15T06:01:28;0.20;99.90
15834;DHT22;8017;50.812;4.934;2023-02-15T06:04:29;0.20;99.90
15834;DHT22;8017;50.812;4.934;2023-02-15T06:07:32;0.20;99.90
15834;DHT22;8017;50.812;4.934;2023-02-15T06:10:35;0.30;99.90
15834;DHT22;8017;50.812;4.934;2023-02-15T06:13:37;0.30;99.90
15834;DHT22;8017;50.812;4.934;2023-02-15T06:16:39;0.20;99.90
15834;DHT22;8017;50.812;4.934;2023-02-15T06:19:41;0.20;99.90
15834;DHT22;8017;50.812;4.934;2023-02-15T06:22:43;0.20;99.90
15834;DHT22;8017;50.812;4.934;2023-02-15T06:25:46;0.20;99.90
15834;DHT22;8017;50.812;4.934;2023-02-15T06:28:48;0.20;99.90
15834;DHT22;8017;50.812;4.934;2023-02-15T06:31:50;0.20;99.90
15834;DHT22;8017;50.812;4.934;2023-02-15T06:34:52;0.20;99.90
15834;DHT22;8017;50.812;4.934;2023-02-15T06:37:54;0.20;99.90
15834;DHT22;8017;50.812;4.934;2023-02-15T06:40:57;0.30;99.90
15834;DHT22;8017;50.812;4.934;2023-02-15T06:43:59;0.20;99.90
15834;DHT22;8017;50.812;4.934;2023-02-15T06:47:01;0.20;99.90
15834;DHT22;8017;50.812;4.934;2023-02-15T06:50:03;0.20;99.90
15834;DHT22;8017;50.812;4.934;2023-02-15T06:53:05;0.20;99.90
15834;DHT22;8017;50.812;4.934;2023-02-15T06:56:10;0.20;99.90
15834;DHT22;8017;50.812;4.934;2023-02-15T06:59:13;0.20;99.90
15834;DHT22;8017;50.812;4.934;2023-02-15T07:02:15;0.30;99.90
15834;DHT22;8017;50.812;4.934;2023-02-15T07:05:17;0.30;99.90
15834;DHT22;8017;50.812;4.934;2023-02-15T07:08:19;0.30;99.90
15834;DHT22;8017;50.812;4.934;2023-02-15T07:11:23;0.40;99.90
15834;DHT22;8017;50.812;4.934;2023-02-15T07:14:42;0.40;99.90
15834;DHT22;8017;50.812;4.934;2023-02-15T07:17:44;0.50;99.90
15834;DHT22;8017;50.812;4.934;2023-02-15T07:20:46;0.60;99.90
15834;DHT22;8017;50.812;4.934;2023-02-15T07:23:49;0.60;99.90
15834;DHT22;8017;50.812;4.934;2023-02-15T07:26:52;0.70;99.90
15834;DHT22;8017;50.812;4.934;2023-02-15T07:29:54;0.80;99.90
15834;DHT22;8017;50.812;4.934;2023-02-15T07:32:56;0.90;99.90
15834;DHT22;8017;50.812;4.934;2023-02-15T07:36:16;1.10;99.90
15834;DHT22;8017;50.812;4.934;2023-02-15T07:39:17;1.20;99.90
15834;DHT22;8017;50.812;4.934;2023-02-15T07:42:21;1.30;99.90
15834;DHT22;8017;50.812;4.934;2023-02-15T07:45:23;1.40;99.90
15834;DHT22;8017;50.812;4.934;2023-02-15T07:48:25;1.60;99.90
15834;DHT22;8017;50.812;4.934;2023-02-15T07:51:27;1.60;99.90
15834;DHT22;8017;50.812;4.934;2023-02-15T07:54:28;1.70;99.90
15834;DHT22;8017;50.812;4.934;2023-02-15T07:57:32;1.80;99.90
15834;DHT22;8017;50.812;4.934;2023-02-15T08:00:34;1.80;99.90
15834;DHT22;8017;50.812;4.934;2023-02-15T08:03:57;1.90;99.90
15834;DHT22;8017;50.812;4.934;2023-02-15T08:06:59;1.90;99.90
15834;DHT22;8017;50.812;4.934;2023-02-15T08:10:00;2.00;99.90
15834;DHT22;8017;50.812;4.934;2023-02-15T08:13:04;2.20;99.90
15834;DHT22;8017;50.812;4.934;2023-02-15T08:16:06;2.30;99.90
15834;DHT22;8017;50.812;4.934;2023-02-15T08:19:09;2.30;99.90
15834;DHT22;8017;50.812;4.934;2023-02-15T08:22:13;2.40;99.90
15834;DHT22;8017;50.812;4.934;2023-02-15T08:25:15;2.40;99.90
15834;DHT22;8017;50.812;4.934;2023-02-15T08:28:18;2.50;99.90
15834;DHT22;8017;50.812;4.934;2023-02-15T08:31:20;2.70;99.90
15834;DHT22;8017;50.812;4.934;2023-02-15T08:34:22;2.80;99.90
15834;DHT22;8017;50.812;4.934;2023-02-15T08:37:24;2.90;99.90
15834;DHT22;8017;50.812;4.934;2023-02-15T08:40:26;3.00;99.90
15834;DHT22;8017;50.812;4.934;2023-02-15T08:43:29;3.20;99.90
15834;DHT22;8017;50.812;4.934;2023-02-15T08:46:34;3.30;99.90
15834;DHT22;8017;50.812;4.934;2023-02-15T08:49:37;3.50;99.90
15834;DHT22;8017;50.812;4.934;2023-02-15T08:52:39;3.60;99.90
15834;DHT22;8017;50.812;4.934;2023-02-15T08:55:43;3.70;99.90
15834;DHT22;8017;50.812;4.934;2023-02-15T08:58:46;3.80;99.90
15834;DHT22;8017;50.812;4.934;2023-02-15T09:01:50;4.00;99.90
15834;DHT22;8017;50.812;4.934;2023-02-15T09:04:52;4.00;99.90
15834;DHT22;8017;50.812;4.934;2023-02-15T09:07:54;4.20;99.90
15834;DHT22;8017;50.812;4.934;2023-02-15T09:11:07;4.30;99.90
15834;DHT22;8017;50.812;4.934;2023-02-15T09:14:13;4.50;99.90
15834;DHT22;8017;50.812;4.934;2023-02-15T09:17:15;4.70;99.90
15834;DHT22;8017;50.812;4.934;2023-02-15T09:20:17;4.90;99.90
15834;DHT22;8017;50.812;4.934;2023-02-15T09:23:19;5.10;99.90
15834;DHT22;8017;50.812;4.934;2023-02-15T09:26:22;5.30;99.90
15834;DHT22;8017;50.812;4.934;2023-02-15T09:29:26;5.40;99.90
15834;DHT22;8017;50.812;4.934;2023-02-15T09:32:28;5.50;99.90
15834;DHT22;8017;50.812;4.934;2023-02-15T09:35:29;5.50;99.90
15834;DHT22;8017;50.812;4.934;2023-02-15T09:38:32;5.50;99.90
15834;DHT22;8017;50.812;4.934;2023-02-15T09:41:45;5.70;99.90
15834;DHT22;8017;50.812;4.934;2023-02-15T09:45:06;6.10;99.90
15834;DHT22;8017;50.812;4.934;2023-02-15T09:48:38;6.30;99.90
15834;DHT22;8017;50.812;4.934;2023-02-15T09:52:06;6.50;99.90
15834;DHT22;8017;50.812;4.934;2023-02-15T09:55:21;6.70;99.90
15834;DHT22;8017;50.812;4.934;2023-02-15T09:58:34;7.00;99.90
15834;DHT22;8017;50.812;4.934;2023-02-15T10:01:49;7.10;99.90
15834;DHT22;8017;50.812;4.934;2023-02-15T10:05:03;7.30;99.90
15834;DHT22;8017;50.812;4.934;2023-02-15T10:08:25;7.50;99.90
15834;DHT22;8017;50.812;4.934;2023-02-15T10:11:48;7.80;99.90
15834;DHT22;8017;50.812;4.934;2023-02-15T10:18:39;7.90;99.90
15834;DHT22;8017;50.812;4.934;2023-02-15T10:21:54;8.00;99.90
15834;DHT22;8017;50.812;4.934;2023-02-15T10:25:18;8.10;99.90
15834;DHT22;8017;50.812;4.934;2023-02-15T10:28:25;8.40;99.90
15834;DHT22;8017;50.812;4.934;2023-02-15T10:31:34;8.60;99.90
15834;DHT22;8017;50.812;4.934;2023-02-15T10:34:47;8.80;99.90
15834;DHT22;8017;50.812;4.934;2023-02-15T10:38:05;8.90;99.90
15834;DHT22;8017;50.812;4.934;2023-02-15T10:41:22;9.00;99.90
15834;DHT22;8017;50.812;4.934;2023-02-15T10:44:40;9.30;99.90
15834;DHT22;8017;50.812;4.934;2023-02-15T10:47:55;9.40;99.90
15834;DHT22;8017;50.812;4.934;2023-02-15T10:51:02;9.50;99.90
15834;DHT22;8017;50.812;4.934;2023-02-15T10:54:12;9.60;99.90
15834;DHT22;8017;50.812;4.934;2023-02-15T10:57:22;9.80;99.90
15834;DHT22;8017;50.812;4.934;2023-02-15T11:00:29;9.80;99.90
15834;DHT22;8017;50.812;4.934;2023-02-15T11:03:56;10.00;99.90
15834;DHT22;8017;50.812;4.934;2023-02-15T11:07:12;10.00;99.90
15834;DHT22;8017;50.812;4.934;2023-02-15T11:10:26;10.10;99.90
15834;DHT22;8017;50.812;4.934;2023-02-15T11:13:33;10.00;99.90
15834;DHT22;8017;50.812;4.934;2023-02-15T11:16:38;10.10;99.90
15834;DHT22;8017;50.812;4.934;2023-02-15T11:19:49;10.20;99.90
15834;DHT22;8017;50.812;4.934;2023-02-15T11:22:54;10.30;99.90
15834;DHT22;8017;50.812;4.934;2023-02-15T11:25:59;10.40;99.90
15834;DHT22;8017;50.812;4.934;2023-02-15T11:29:07;10.40;99.90
15834;DHT22;8017;50.812;4.934;2023-02-15T11:32:18;10.40;99.90
15834;DHT22;8017;50.812;4.934;2023-02-15T11:35:24;10.30;99.90
15834;DHT22;8017;50.812;4.934;2023-02-15T11:38:32;10.40;99.90
15834;DHT22;8017;50.812;4.934;2023-02-15T11:41:37;10.40;99.90
15834;DHT22;8017;50.812;4.934;2023-02-15T11:44:54;10.60;99.90
15834;DHT22;8017;50.812;4.934;2023-02-15T11:47:58;10.70;99.90
15834;DHT22;8017;50.812;4.934;2023-02-15T11:51:02;10.80;99.90
15834;DHT22;8017;50.812;4.934;2023-02-15T11:54:07;10.90;99.90
15834;DHT22;8017;50.812;4.934;2023-02-15T11:57:14;11.00;99.90
15834;DHT22;8017;50.812;4.934;2023-02-15T12:00:27;11.10;99.90
15834;DHT22;8017;50.812;4.934;2023-02-15T12:03:44;11.10;99.90
15834;DHT22;8017;50.812;4.934;2023-02-15T12:06:51;11.20;99.90
15834;DHT22;8017;50.812;4.934;2023-02-15T12:10:03;11.40;99.90
15834;DHT22;8017;50.812;4.934;2023-02-15T12:13:12;11.30;99.90
15834;DHT22;8017;50.812;4.934;2023-02-15T12:16:14;11.40;99.90
15834;DHT22;8017;50.812;4.934;2023-02-15T12:19:29;11.60;99.90
15834;DHT22;8017;50.812;4.934;2023-02-15T12:22:34;11.80;99.90
15834;DHT22;8017;50.812;4.934;2023-02-15T12:25:41;11.80;99.90
15834;DHT22;8017;50.812;4.934;2023-02-15T12:28:49;11.80;99.90
15834;DHT22;8017;50.812;4.934;2023-02-15T12:31:52;11.60;99.90
15834;DHT22;8017;50.812;4.934;2023-02-15T12:34:59;11.50;99.90
15834;DHT22;8017;50.812;4.934;2023-02-15T12:38:05;11.50;99.90
15834;DHT22;8017;50.812;4.934;2023-02-15T12:41:23;11.50;99.90
15834;DHT22;8017;50.812;4.934;2023-02-15T12:44:27;11.50;99.90
15834;DHT22;8017;50.812;4.934;2023-02-15T12:47:30;11.60;99.90
15834;DHT22;8017;50.812;4.934;2023-02-15T12:50:33;11.70;99.90
15834;DHT22;8017;50.812;4.934;2023-02-15T12:53:36;11.80;99.90
15834;DHT22;8017;50.812;4.934;2023-02-15T12:56:40;11.90;99.90
15834;DHT22;8017;50.812;4.934;2023-02-15T12:59:49;12.00;99.90
15834;DHT22;8017;50.812;4.934;2023-02-15T13:02:53;12.00;99.90
15834;DHT22;8017;50.812;4.934;2023-02-15T13:05:56;12.00;99.90
15834;DHT22;8017;50.812;4.934;2023-02-15T13:09:06;12.00;99.90
15834;DHT22;8017;50.812;4.934;2023-02-15T13:12:20;12.00;99.90
15834;DHT22;8017;50.812;4.934;2023-02-15T13:15:27;12.10;99.90
15834;DHT22;8017;50.812;4.934;2023-02-15T13:18:32;12.10;99.90
15834;DHT22;8017;50.812;4.934;2023-02-15T13:21:37;12.00;99.90
15834;DHT22;8017;50.812;4.934;2023-02-15T13:24:44;12.00;99.90
15834;DHT22;8017;50.812;4.934;2023-02-15T13:27:52;12.20;99.90
15834;DHT22;8017;50.812;4.934;2023-02-15T13:30:55;12.20;99.90
15834;DHT22;8017;50.812;4.934;2023-02-15T13:34:02;12.30;99.90
15834;DHT22;8017;50.812;4.934;2023-02-15T13:37:08;12.20;99.90
15834;DHT22;8017;50.812;4.934;2023-02-15T13:40:15;12.20;99.90
15834;DHT22;8017;50.812;4.934;2023-02-15T13:43:36;12.20;99.90
15834;DHT22;8017;50.812;4.934;2023-02-15T13:47:03;12.20;99.90
15834;DHT22;8017;50.812;4.934;2023-02-15T13:50:26;12.20;99.90
15834;DHT22;8017;50.812;4.934;2023-02-15T13:57:05;12.20;99.90
15834;DHT22;8017;50.812;4.934;2023-02-15T14:00:22;12.30;99.90
15834;DHT22;8017;50.812;4.934;2023-02-15T14:03:45;12.30;99.90
15834;DHT22;8017;50.812;4.934;2023-02-15T14:07:14;12.40;99.90
15834;DHT22;8017;50.812;4.934;2023-02-15T14:10:27;12.50;99.90
15834;DHT22;8017;50.812;4.934;2023-02-15T14:13:46;12.50;99.90
15834;DHT22;8017;50.812;4.934;2023-02-15T14:16:59;12.50;99.90
15834;DHT22;8017;50.812;4.934;2023-02-15T14:20:07;12.50;99.90
15834;DHT22;8017;50.812;4.934;2023-02-15T14:23:21;12.50;99.90
15834;DHT22;8017;50.812;4.934;2023-02-15T14:26:35;12.50;99.90
15834;DHT22;8017;50.812;4.934;2023-02-15T14:29:49;12.50;99.90
15834;DHT22;8017;50.812;4.934;2023-02-15T14:32:55;12.50;99.90
15834;DHT22;8017;50.812;4.934;2023-02-15T14:35:59;12.40;99.90
15834;DHT22;8017;50.812;4.934;2023-02-15T14:39:16;12.40;99.90
15834;DHT22;8017;50.812;4.934;2023-02-15T14:42:40;12.40;99.90
15834;DHT22;8017;50.812;4.934;2023-02-15T14:45:50;12.40;99.90
15834;DHT22;8017;50.812;4.934;2023-02-15T14:48:57;12.30;99.90
15834;DHT22;8017;50.812;4.934;2023-02-15T14:52:04;12.30;99.90
15834;DHT22;8017;50.812;4.934;2023-02-15T14:55:08;12.20;99.90
15834;DHT22;8017;50.812;4.934;2023-02-15T14:58:11;12.20;99.90
15834;DHT22;8017;50.812;4.934;2023-02-15T15:01:14;12.00;99.90
15834;DHT22;8017;50.812;4.934;2023-02-15T15:04:30;12.00;99.90
15834;DHT22;8017;50.812;4.934;2023-02-15T15:07:41;11.90;99.90
15834;DHT22;8017;50.812;4.934;2023-02-15T15:10:46;11.90;99.90
15834;DHT22;8017;50.812;4.934;2023-02-15T15:13:54;11.90;99.90
15834;DHT22;8017;50.812;4.934;2023-02-15T15:16:58;11.90;99.90
15834;DHT22;8017;50.812;4.934;2023-02-15T15:20:02;11.90;99.90
15834;DHT22;8017;50.812;4.934;2023-02-15T15:23:39;11.90;99.90
15834;DHT22;8017;50.812;4.934;2023-02-15T15:26:42;11.90;99.90
15834;DHT22;8017;50.812;4.934;2023-02-15T15:29:47;11.90;99.90
15834;DHT22;8017;50.812;4.934;2023-02-15T15:32:54;11.80;99.90
15834;DHT22;8017;50.812;4.934;2023-02-15T15:47:20;11.50;99.90
15834;DHT22;8017;50.812;4.934;2023-02-15T15:50:26;11.50;99.90
15834;DHT22;8017;50.812;4.934;2023-02-15T15:53:34;11.40;99.90
15834;DHT22;8017;50.812;4.934;2023-02-15T15:56:43;11.30;99.90
15834;DHT22;8017;50.812;4.934;2023-02-15T15:59:46;11.20;99.90
15834;DHT22;8017;50.812;4.934;2023-02-15T16:02:50;11.10;99.90
15834;DHT22;8017;50.812;4.934;2023-02-15T16:05:52;11.00;99.90
15834;DHT22;8017;50.812;4.934;2023-02-15T16:08:57;10.90;99.90
15834;DHT22;8017;50.812;4.934;2023-02-15T16:12:00;10.90;99.90
15834;DHT22;8017;50.812;4.934;2023-02-15T16:15:12;10.80;99.90
15834;DHT22;8017;50.812;4.934;2023-02-15T16:18:17;10.70;99.90
15834;DHT22;8017;50.812;4.934;2023-02-15T16:21:23;10.70;99.90
15834;DHT22;8017;50.812;4.934;2023-02-15T16:28:07;10.50;99.90
15834;DHT22;8017;50.812;4.934;2023-02-15T16:31:13;10.40;99.90
15834;DHT22;8017;50.812;4.934;2023-02-15T16:34:17;10.30;99.90
15834;DHT22;8017;50.812;4.934;2023-02-15T16:37:20;10.30;99.90
15834;DHT22;8017;50.812;4.934;2023-02-15T16:40:45;10.20;99.90
15834;DHT22;8017;50.812;4.934;2023-02-15T16:43:50;10.10;99.90
15834;DHT22;8017;50.812;4.934;2023-02-15T16:46:53;10.00;99.90
15834;DHT22;8017;50.812;4.934;2023-02-15T16:49:58;9.90;99.90
15834;DHT22;8017;50.812;4.934;2023-02-15T16:53:01;9.70;99.90
15834;DHT22;8017;50.812;4.934;2023-02-15T16:56:05;9.60;99.90
15834;DHT22;8017;50.812;4.934;2023-02-15T16:59:19;9.50;99.90
15834;DHT22;8017;50.812;4.934;2023-02-15T17:02:25;9.40;99.90
15834;DHT22;8017;50.812;4.934;2023-02-15T17:05:32;9.20;99.90
15834;DHT22;8017;50.812;4.934;2023-02-15T17:08:41;9.10;99.90
15834;DHT22;8017;50.812;4.934;2023-02-15T17:11:44;9.00;99.90
15834;DHT22;8017;50.812;4.934;2023-02-15T17:14:46;8.90;99.90
15834;DHT22;8017;50.812;4.934;2023-02-15T17:17:58;8.70;99.90
15834;DHT22;8017;50.812;4.934;2023-02-15T17:21:08;8.60;99.90
15834;DHT22;8017;50.812;4.934;2023-02-15T17:24:16;8.50;99.90
15834;DHT22;8017;50.812;4.934;2023-02-15T17:27:22;8.40;99.90
15834;DHT22;8017;50.812;4.934;2023-02-15T17:30:29;8.40;99.90
15834;DHT22;8017;50.812;4.934;2023-02-15T17:33:37;8.30;99.90
15834;DHT22;8017;50.812;4.934;2023-02-15T17:36:56;8.30;99.90
15834;DHT22;8017;50.812;4.934;2023-02-15T17:40:00;8.20;99.90
15834;DHT22;8017;50.812;4.934;2023-02-15T17:43:06;8.10;99.90
15834;DHT22;8017;50.812;4.934;2023-02-15T17:46:10;8.10;99.90
15834;DHT22;8017;50.812;4.934;2023-02-15T17:49:22;8.00;99.90
15834;DHT22;8017;50.812;4.934;2023-02-15T17:52:26;8.00;99.90
15834;DHT22;8017;50.812;4.934;2023-02-15T17:55:29;7.90;99.90
15834;DHT22;8017;50.812;4.934;2023-02-15T17:58:40;7.80;99.90
15834;DHT22;8017;50.812;4.934;2023-02-15T18:01:44;7.70;99.90
15834;DHT22;8017;50.812;4.934;2023-02-15T18:05:07;7.70;99.90
15834;DHT22;8017;50.812;4.934;2023-02-15T18:08:27;7.70;99.90
15834;DHT22;8017;50.812;4.934;2023-02-15T18:11:46;7.60;99.90
15834;DHT22;8017;50.812;4.934;2023-02-15T18:14:51;7.60;99.90
15834;DHT22;8017;50.812;4.934;2023-02-15T18:17:55;7.70;99.90
15834;DHT22;8017;50.812;4.934;2023-02-15T18:20:57;7.90;99.90
15834;DHT22;8017;50.812;4.934;2023-02-15T18:23:59;8.00;99.90
15834;DHT22;8017;50.812;4.934;2023-02-15T18:27:01;8.00;99.90
15834;DHT22;8017;50.812;4.934;2023-02-15T18:30:07;8.00;99.90
15834;DHT22;8017;50.812;4.934;2023-02-15T18:33:23;7.90;99.90
15834;DHT22;8017;50.812;4.934;2023-02-15T18:36:28;7.70;99.90
15834;DHT22;8017;50.812;4.934;2023-02-15T18:39:36;7.60;99.90
15834;DHT22;8017;50.812;4.934;2023-02-15T18:42:39;7.50;99.90
15834;DHT22;8017;50.812;4.934;2023-02-15T18:45:47;7.40;99.90
15834;DHT22;8017;50.812;4.934;2023-02-15T18:48:49;7.60;99.90
15834;DHT22;8017;50.812;4.934;2023-02-15T18:51:52;7.40;99.90
15834;DHT22;8017;50.812;4.934;2023-02-15T18:54:57;7.40;99.90
15834;DHT22;8017;50.812;4.934;2023-02-15T18:58:01;7.30;99.90
15834;DHT22;8017;50.812;4.934;2023-02-15T19:01:04;7.30;99.90
15834;DHT22;8017;50.812;4.934;2023-02-15T19:04:06;7.20;99.90
15834;DHT22;8017;50.812;4.934;2023-02-15T19:07:14;7.10;99.90
15834;DHT22;8017;50.812;4.934;2023-02-15T19:10:19;7.10;99.90
15834;DHT22;8017;50.812;4.934;2023-02-15T19:13:21;7.10;99.90
15834;DHT22;8017;50.812;4.934;2023-02-15T19:16:28;7.00;99.90
15834;DHT22;8017;50.812;4.934;2023-02-15T19:19:31;7.00;99.90
15834;DHT22;8017;50.812;4.934;2023-02-15T19:22:33;6.90;99.90
15834;DHT22;8017;50.812;4.934;2023-02-15T19:25:36;6.90;99.90
15834;DHT22;8017;50.812;4.934;2023-02-15T19:28:39;6.90;99.90
15834;DHT22;8017;50.812;4.934;2023-02-15T19:31:43;6.90;99.90
15834;DHT22;8017;50.812;4.934;2023-02-15T19:34:45;6.90;99.90
15834;DHT22;8017;50.812;4.934;2023-02-15T19:37:49;6.90;99.90
15834;DHT22;8017;50.812;4.934;2023-02-15T19:40:51;6.80;99.90
15834;DHT22;8017;50.812;4.934;2023-02-15T19:43:53;6.80;99.90
15834;DHT22;8017;50.812;4.934;2023-02-15T19:46:57;6.80;99.90
15834;DHT22;8017;50.812;4.934;2023-02-15T19:49:59;6.70;99.90
15834;DHT22;8017;50.812;4.934;2023-02-15T19:53:03;6.80;99.90
15834;DHT22;8017;50.812;4.934;2023-02-15T19:56:09;6.80;99.90
15834;DHT22;8017;50.812;4.934;2023-02-15T19:59:19;6.70;99.90
15834;DHT22;8017;50.812;4.934;2023-02-15T20:02:24;6.60;99.90
15834;DHT22;8017;50.812;4.934;2023-02-15T20:05:27;6.60;99.90
15834;DHT22;8017;50.812;4.934;2023-02-15T20:08:30;6.60;99.90
15834;DHT22;8017;50.812;4.934;2023-02-15T20:11:32;6.50;99.90
15834;DHT22;8017;50.812;4.934;2023-02-15T20:14:34;6.40;99.90
15834;DHT22;8017;50.812;4.934;2023-02-15T20:17:37;6.30;99.90
15834;DHT22;8017;50.812;4.934;2023-02-15T20:20:41;6.30;99.90
15834;DHT22;8017;50.812;4.934;2023-02-15T20:23:44;6.30;99.90
15834;DHT22;8017;50.812;4.934;2023-02-15T20:26:46;6.30;99.90
15834;DHT22;8017;50.812;4.934;2023-02-15T20:29:48;6.20;99.90
15834;DHT22;8017;50.812;4.934;2023-02-15T20:32:52;6.20;99.90
15834;DHT22;8017;50.812;4.934;2023-02-15T20:35:54;6.10;99.90
15834;DHT22;8017;50.812;4.934;2023-02-15T20:38:56;6.10;99.90
15834;DHT22;8017;50.812;4.934;2023-02-15T20:41:59;6.10;99.90